Time;durP1;ratioP1;P1;durP2;ratioP2;P2;SDS_P1;SDS_P2;PMS_P1;PMS_P2;Temp;Humidity;BMP_temperature;BMP_pressure;BME280_temperature;BME280_humidity;BME280_pressure;Samples;Min_cycle;Max_cycle;Signal;HPM_P1;HPM_P2
2022/09/07 00:00:08;;;;;;;0.75;0.40;;;18.80;62.40;21.00;93920.00;;;;10554515;27;46030;-59
2022/09/07 00:05:30;;;;;;;0.47;0.32;;;18.90;62.60;21.00;93915.00;;;;10528660;27;45290;-58
2022/09/07 00:10:56;;;;;;;0.55;0.43;;;18.90;62.60;21.00;93924.00;;;;10514198;27;45849;-58
2022/09/07 00:16:19;;;;;;;0.80;0.40;;;18.80;62.50;21.00;93921.00;;;;10542554;27;45700;-59
2022/09/07 00:21:41;;;;;;;1.10;0.52;;;18.80;62.50;20.90;93920.00;;;;10556581;27;45487;-59
2022/09/07 00:27:02;;;;;;;0.32;0.20;;;18.80;62.60;20.90;93911.00;;;;10555376;27;45951;-59
2022/09/07 00:32:22;;;;;;;1.55;0.50;;;18.90;62.60;21.00;93894.00;;;;10555261;27;45161;-60
2022/09/07 00:37:44;;;;;;;0.98;0.65;;;18.90;62.50;20.90;93896.00;;;;10532636;27;45776;-60
2022/09/07 00:43:05;;;;;;;0.68;0.47;;;18.80;62.30;21.00;93890.00;;;;10555593;27;45884;-60
2022/09/07 00:48:34;;;;;;;0.40;0.40;;;18.80;62.50;21.00;93915.00;;;;10554185;27;45201;-59
2022/09/07 00:54:00;;;;;;;1.70;0.60;;;18.90;62.60;21.00;93909.00;;;;10554360;27;45506;-60
2022/09/07 00:59:25;;;;;;;1.15;0.43;;;18.90;62.50;21.00;93899.00;;;;10551278;27;45769;-60
2022/09/07 01:04:49;;;;;;;0.68;0.40;;;18.80;62.50;20.90;93882.00;;;;10528324;27;45306;-58
2022/09/07 01:10:13;;;;;;;0.32;0.32;;;18.80;62.50;20.90;93886.00;;;;10511825;27;45238;-59
2022/09/07 01:15:43;;;;;;;1.17;0.57;;;18.80;62.50;21.00;93893.00;;;;10511454;27;45738;-59
2022/09/07 01:21:27;;;;;;;2.05;0.60;;;18.90;62.50;21.00;93881.00;;;;10511358;27;45215;-60
2022/09/07 01:27:30;;;;;;;0.73;0.40;;;18.90;62.50;20.90;93890.00;;;;10510175;27;45797;-58
2022/09/07 01:33:13;;;;;;;0.73;0.50;;;18.80;62.60;21.00;93888.00;;;;10511289;27;45187;-58
2022/09/07 01:38:41;;;;;;;1.92;0.60;;;18.80;62.50;20.90;93892.00;;;;10513305;27;45131;-58
2022/09/07 01:44:05;;;;;;;0.77;0.43;;;18.80;62.60;20.90;93870.00;;;;10541364;27;45885;-59
2022/09/07 01:49:34;;;;;;;1.63;0.40;;;18.80;62.50;20.90;93885.00;;;;10551643;27;45158;-59
2022/09/07 01:55:01;;;;;;;2.13;0.52;;;18.80;62.70;20.90;93880.00;;;;10552860;27;45237;-60
2022/09/07 02:00:21;;;;;;;0.32;0.32;;;18.80;62.70;20.90;93891.00;;;;10551839;27;45233;-59
2022/09/07 02:05:51;;;;;;;1.75;0.40;;;18.90;62.70;20.90;93875.00;;;;10517634;27;45222;-59
2022/09/07 02:11:18;;;;;;;1.50;0.50;;;18.80;62.60;20.90;93865.00;;;;10517453;27;45235;-59
2022/09/07 02:16:45;;;;;;;1.27;0.32;;;18.90;62.60;20.90;93877.00;;;;10517219;27;45407;-59
2022/09/07 02:22:13;;;;;;;0.93;0.50;;;18.80;62.60;20.90;93875.00;;;;10517660;27;45329;-58
2022/09/07 02:27:40;;;;;;;2.13;0.50;;;18.80;62.60;20.90;93879.00;;;;10531436;27;45456;-59
2022/09/07 02:33:01;;;;;;;1.00;0.50;;;18.80;62.60;20.90;93883.00;;;;10558684;27;45807;-58
2022/09/07 02:38:23;;;;;;;0.65;0.30;;;18.90;62.60;20.90;93879.00;;;;10520011;27;45148;-59
2022/09/07 02:43:44;;;;;;;0.43;0.40;;;18.80;62.70;20.90;93869.00;;;;10545940;27;45243;-59
2022/09/07 02:49:14;;;;;;;0.98;0.43;;;18.90;62.70;20.90;93888.00;;;;10557624;27;45160;-59
2022/09/07 02:54:53;;;;;;;0.88;0.50;;;18.80;62.70;20.90;93875.00;;;;10558488;27;45181;-59
2022/09/07 03:00:19;;;;;;;1.08;0.50;;;18.90;62.80;20.90;93890.00;;;;10557855;27;45235;-59
2022/09/07 03:05:46;;;;;;;1.73;0.50;;;18.80;62.70;20.90;93874.00;;;;10544332;27;45960;-58
2022/09/07 03:11:08;;;;;;;0.55;0.40;;;18.80;62.60;20.90;93874.00;;;;10557904;27;45196;-60
2022/09/07 03:16:29;;;;;;;0.63;0.45;;;18.90;62.70;20.90;93886.00;;;;10557178;27;45232;-59
2022/09/07 03:21:49;;;;;;;1.95;0.50;;;18.80;62.70;20.90;93922.00;;;;10549511;27;45691;-60
2022/09/07 03:27:11;;;;;;;0.60;0.30;;;18.90;62.70;20.90;93901.00;;;;10525599;27;45692;-60
2022/09/07 03:32:33;;;;;;;0.50;0.50;;;18.90;62.70;20.90;93889.00;;;;10557013;27;45173;-59
2022/09/07 03:37:54;;;;;;;0.55;0.50;;;18.80;62.50;20.90;93893.00;;;;10528892;27;45241;-60
2022/09/07 03:43:16;;;;;;;0.93;0.40;;;18.80;62.70;20.90;93893.00;;;;10556625;27;45192;-60
2022/09/07 03:48:38;;;;;;;1.48;0.50;;;18.80;62.70;20.90;93888.00;;;;10555416;27;45479;-60
2022/09/07 03:53:59;;;;;;;1.02;0.45;;;18.80;62.50;20.90;93898.00;;;;10555999;27;45695;-60
2022/09/07 03:59:21;;;;;;;1.40;0.40;;;18.80;62.60;20.90;93907.00;;;;10555745;27;45221;-58
2022/09/07 04:04:42;;;;;;;1.52;0.40;;;18.80;62.70;20.90;93930.00;;;;10538147;27;45734;-58
2022/09/07 04:10:03;;;;;;;2.45;0.68;;;18.80;62.80;20.90;93937.00;;;;10513797;27;45178;-60
2022/09/07 04:15:24;;;;;;;0.75;0.50;;;18.90;62.80;20.90;93935.00;;;;10513206;27;45222;-60
2022/09/07 04:20:46;;;;;;;0.73;0.50;;;18.90;62.80;20.90;93932.00;;;;10513505;27;45829;-59
2022/09/07 04:26:13;;;;;;;1.63;0.47;;;18.90;63.70;20.90;93931.00;;;;10541865;27;46155;-59
2022/09/07 04:31:35;;;;;;;;;;;18.80;62.70;20.90;93938.00;;;;10554794;27;45320;-60
2022/09/07 04:36:56;;;;;;;0.82;0.40;;;18.80;62.90;20.90;93940.00;;;;10528845;27;45279;-59
2022/09/07 04:42:16;;;;;;;1.20;0.68;;;18.80;62.80;20.90;93939.00;;;;10512447;27;45221;-60
2022/09/07 04:47:38;;;;;;;0.70;0.50;;;18.80;62.80;20.90;93933.00;;;;10511574;27;45382;-59
2022/09/07 04:52:59;;;;;;;1.30;0.60;;;18.80;62.90;20.90;93912.00;;;;10511260;27;45743;-60
2022/09/07 04:58:19;;;;;;;1.67;0.60;;;18.80;62.90;20.90;93922.00;;;;10540867;27;45682;-59
2022/09/07 05:03:41;;;;;;;0.80;0.43;;;18.80;62.90;20.90;93922.00;;;;10545033;27;45884;-59
2022/09/07 05:09:02;;;;;;;1.05;0.60;;;18.80;62.90;20.90;93921.00;;;;10511269;27;45158;-58
2022/09/07 05:14:23;;;;;;;1.05;0.52;;;18.80;62.90;20.90;93936.00;;;;10511312;27;45672;-60
2022/09/07 05:19:45;;;;;;;0.55;0.30;;;18.80;62.90;20.90;93924.00;;;;10511901;27;45229;-60
2022/09/07 05:25:06;;;;;;;0.80;0.40;;;18.80;62.90;20.90;93928.00;;;;10511240;27;45692;-60
2022/09/07 05:30:27;;;;;;;0.65;0.50;;;18.80;62.80;20.90;93927.00;;;;10550190;27;45217;-59
2022/09/07 05:35:57;;;;;;;0.80;0.43;;;18.80;62.70;20.90;93929.00;;;;10536187;27;45255;-60
2022/09/07 05:41:20;;;;;;;1.45;0.40;;;18.80;62.90;20.90;93932.00;;;;10512388;27;45314;-58
2022/09/07 05:46:41;;;;;;;0.95;0.50;;;18.80;62.80;20.90;93939.00;;;;10517818;27;45244;-58
2022/09/07 05:52:03;;;;;;;0.88;0.47;;;18.80;62.90;20.90;93922.00;;;;10518589;27;45371;-58
2022/09/07 05:57:24;;;;;;;0.60;0.40;;;18.80;62.90;20.90;93938.00;;;;10517148;27;45270;-59
2022/09/07 06:02:45;;;;;;;0.93;0.73;;;18.80;62.90;20.90;93951.00;;;;10538201;27;45328;-60
2022/09/07 06:08:07;;;;;;;0.55;0.30;;;18.80;62.90;20.90;93949.00;;;;10517353;27;45161;-59
2022/09/07 06:13:27;;;;;;;0.88;0.47;;;18.80;62.90;20.90;93938.00;;;;10517278;27;45857;-60
2022/09/07 06:18:49;;;;;;;1.17;0.40;;;18.80;62.90;20.90;93958.00;;;;10515882;27;45782;-58
2022/09/07 06:24:11;;;;;;;0.75;0.47;;;18.80;63.00;20.90;93957.00;;;;10517491;27;45703;-60
2022/09/07 06:29:32;;;;;;;0.30;0.30;;;18.80;62.90;20.90;93938.00;;;;10547549;27;45229;-60
2022/09/07 06:34:53;;;;;;;1.02;0.30;;;18.80;63.00;20.90;93956.00;;;;10556520;27;45566;-59
2022/09/07 06:40:15;;;;;;;0.90;0.40;;;18.80;63.00;20.90;93957.00;;;;10528799;27;45703;-59
2022/09/07 06:45:35;;;;;;;1.58;0.80;;;18.80;63.00;20.90;93971.00;;;;10515587;27;45708;-58
2022/09/07 06:50:58;;;;;;;2.15;0.40;;;18.80;63.10;20.90;93965.00;;;;10515693;27;45166;-60
2022/09/07 06:56:20;;;;;;;3.35;0.65;;;18.80;63.10;20.90;93963.00;;;;10514377;27;45309;-59
2022/09/07 07:01:41;;;;;;;1.58;0.60;;;18.80;63.60;20.90;93967.00;;;;10530900;27;45866;-59
2022/09/07 07:07:01;;;;;;;1.85;0.93;;;18.80;63.70;20.90;93951.00;;;;10522773;27;45462;-59
2022/09/07 07:12:23;;;;;;;1.25;0.70;;;18.80;63.90;20.90;93967.00;;;;10527316;27;45365;-58
2022/09/07 07:17:44;;;;;;;2.17;0.65;;;18.80;64.20;20.90;93960.00;;;;10522256;27;45315;-59
2022/09/07 07:23:05;;;;;;;1.30;0.63;;;18.80;63.80;20.90;93974.00;;;;10538716;27;45319;-58
2022/09/07 07:28:27;;;;;;;3.42;0.80;;;18.80;64.00;20.90;93984.00;;;;10533543;27;45337;-58
2022/09/07 07:33:48;;;;;;;1.83;0.85;;;18.80;64.40;20.90;93979.00;;;;10522051;27;45298;-59
2022/09/07 07:39:10;;;;;;;2.00;0.60;;;18.80;64.50;20.90;93980.00;;;;10546055;27;45479;-59
2022/09/07 07:44:31;;;;;;;1.58;0.70;;;18.80;64.60;20.90;94001.00;;;;10514941;27;45919;-60
2022/09/07 07:49:52;;;;;;;2.28;0.98;;;18.90;64.40;20.90;93995.00;;;;10536899;27;46131;-59
2022/09/07 07:55:13;;;;;;;2.38;0.70;;;18.80;64.30;20.90;94010.00;;;;10538850;27;45199;-59
2022/09/07 08:00:35;;;;;;;2.03;0.73;;;18.90;64.30;20.90;93997.00;;;;10556508;27;45749;-59
2022/09/07 08:05:56;;;;;;;0.63;0.60;;;18.90;64.20;20.90;94006.00;;;;10531893;27;45178;-60
2022/09/07 08:11:20;;;;;;;1.92;1.00;;;18.80;64.10;20.90;94012.00;;;;10553169;27;45504;-59
2022/09/07 08:16:44;;;;;;;2.92;0.77;;;18.80;64.10;20.90;94005.00;;;;10554814;27;45194;-60
2022/09/07 08:22:04;;;;;;;1.30;0.68;;;18.80;65.20;20.90;94006.00;;;;10525888;27;45921;-60
2022/09/07 08:27:25;;;;;;;1.40;0.77;;;18.80;63.80;21.00;94003.00;;;;10525151;27;45675;-59
2022/09/07 08:32:47;;;;;;;1.38;0.80;;;18.90;64.50;21.00;94005.00;;;;10554990;27;45257;-59
2022/09/07 08:38:08;;;;;;;0.95;0.70;;;18.90;64.90;21.00;93994.00;;;;10532790;27;45313;-59
2022/09/07 08:43:42;;;;;;;1.65;0.70;;;18.90;65.90;21.00;93981.00;;;;10531660;27;45622;-59
2022/09/07 08:49:11;;;;;;;6.32;0.90;;;18.90;66.00;21.10;93999.00;;;;10520145;27;45436;-59
2022/09/07 08:54:32;;;;;;;1.40;0.73;;;19.00;66.20;21.10;93984.00;;;;10517775;27;45678;-57
2022/09/07 09:00:04;;;;;;;5.88;0.90;;;19.00;66.30;21.10;93986.00;;;;10511824;27;45760;-60
2022/09/07 09:05:31;;;;;;;1.67;0.75;;;19.00;66.60;21.10;93989.00;;;;10510803;27;45190;-59
2022/09/07 09:11:01;;;;;;;0.60;0.60;;;19.00;66.50;21.10;93968.00;;;;10511863;27;45203;-59
2022/09/07 09:16:33;;;;;;;4.15;0.73;;;19.00;66.50;21.10;93973.00;;;;10541247;27;45196;-59
2022/09/07 09:22:09;;;;;;;2.55;0.70;;;19.00;66.40;21.10;93955.00;;;;10553456;27;45088;-61
2022/09/07 09:27:30;;;;;;;1.15;0.70;;;19.00;66.40;21.10;93965.00;;;;10553138;27;45270;-59
2022/09/07 09:33:12;;;;;;;2.05;0.90;;;19.00;66.40;21.10;93955.00;;;;10548040;27;45287;-59
2022/09/07 09:38:38;;;;;;;2.03;0.68;;;19.00;66.40;21.10;93950.00;;;;10530319;27;45821;-58
2022/09/07 09:43:59;;;;;;;1.60;0.73;;;19.00;66.10;21.10;93947.00;;;;10524037;27;45182;-57
2022/09/07 09:49:24;;;;;;;3.08;1.00;;;19.00;66.30;21.20;93952.00;;;;10529484;27;45692;-58
2022/09/07 09:54:52;;;;;;;1.75;0.70;;;19.00;66.00;21.20;93938.00;;;;10531412;27;45472;-59
2022/09/07 10:00:16;;;;;;;3.03;0.60;;;19.00;66.00;21.20;93916.00;;;;10534144;27;45128;-61
2022/09/07 10:05:39;;;;;;;1.23;0.60;;;19.00;66.00;21.20;93919.00;;;;10517764;27;45506;-60
2022/09/07 10:11:06;;;;;;;0.95;0.57;;;19.00;66.00;21.20;93910.00;;;;10510947;27;45192;-61
2022/09/07 10:16:39;;;;;;;1.40;0.90;;;19.00;66.00;21.20;93905.00;;;;10531780;27;45288;-60
2022/09/07 10:22:01;;;;;;;4.90;0.90;;;19.10;65.90;21.20;93892.00;;;;10510367;27;45314;-59
2022/09/07 10:27:32;;;;;;;1.08;0.60;;;19.10;65.80;21.20;93887.00;;;;10519415;27;45886;-59
2022/09/07 10:33:01;;;;;;;2.47;0.85;;;19.10;65.70;21.20;93887.00;;;;10516961;27;45806;-60
2022/09/07 10:38:23;;;;;;;2.25;0.88;;;19.10;65.90;21.20;93875.00;;;;10519289;27;45315;-60
2022/09/07 10:43:48;;;;;;;1.98;1.10;;;19.10;65.80;21.20;93879.00;;;;10525295;27;45188;-59
2022/09/07 10:49:23;;;;;;;1.13;0.60;;;19.10;65.80;21.20;93874.00;;;;10516142;27;45217;-59
2022/09/07 10:54:50;;;;;;;4.05;0.77;;;19.10;65.60;21.20;93878.00;;;;10539099;27;45311;-60
2022/09/07 11:00:16;;;;;;;0.93;0.60;;;19.10;65.90;21.20;93862.00;;;;10516162;27;45247;-59
2022/09/07 11:05:56;;;;;;;1.05;0.47;;;19.10;65.90;21.20;93862.00;;;;10515102;27;45262;-59
2022/09/07 11:11:25;;;;;;;2.17;0.77;;;19.10;65.90;21.20;93862.00;;;;10532905;27;45276;-60
2022/09/07 11:16:52;;;;;;;4.03;0.70;;;19.10;66.00;21.20;93849.00;;;;10529223;27;45164;-61
2022/09/07 11:22:22;;;;;;;2.15;0.70;;;19.10;66.00;21.20;93860.00;;;;10515692;27;45913;-59
2022/09/07 11:27:48;;;;;;;3.20;0.70;;;19.10;66.10;21.20;93854.00;;;;10530419;27;45686;-59
2022/09/07 11:33:18;;;;;;;1.30;0.60;;;19.10;66.10;21.30;93861.00;;;;10554814;27;45788;-60
2022/09/07 11:38:46;;;;;;;1.45;0.60;;;19.10;66.20;21.20;93853.00;;;;10516509;27;45778;-59
2022/09/07 11:44:14;;;;;;;1.58;0.57;;;19.10;66.20;21.30;93845.00;;;;10524449;27;45362;-58
2022/09/07 11:49:36;;;;;;;1.48;0.65;;;19.10;66.20;21.30;93834.00;;;;10513004;27;45780;-59
2022/09/07 11:55:03;;;;;;;2.50;0.70;;;19.10;66.20;21.30;93829.00;;;;10514382;27;44879;-59
2022/09/07 12:00:31;;;;;;;1.00;0.60;;;19.10;66.40;21.30;93808.00;;;;10513608;27;45177;-60
2022/09/07 12:06:18;;;;;;;1.65;0.70;;;19.10;66.30;21.30;93817.00;;;;10512504;27;45141;-59
2022/09/07 12:12:21;;;;;;;1.88;0.77;;;19.20;66.40;21.30;93795.00;;;;10513031;27;45245;-59
2022/09/07 12:18:00;;;;;;;1.85;0.70;;;19.10;66.30;21.30;93801.00;;;;10542265;27;45820;-58
2022/09/07 12:23:29;;;;;;;2.30;0.63;;;19.20;66.30;21.30;93795.00;;;;10555895;27;45695;-60
2022/09/07 12:29:23;;;;;;;1.38;0.80;;;19.10;66.50;21.30;93784.00;;;;10536786;27;45257;-58
2022/09/07 12:34:53;;;;;;;1.73;0.70;;;19.20;66.60;21.30;93789.00;;;;10520010;27;45487;-60
2022/09/07 12:40:45;;;;;;;3.00;0.73;;;19.10;66.50;21.30;93796.00;;;;10526839;27;45727;-60
2022/09/07 12:46:19;;;;;;;1.75;0.70;;;19.20;66.40;21.30;93771.00;;;;10518255;27;45186;-56
2022/09/07 12:51:41;;;;;;;1.23;0.60;;;19.20;66.50;21.30;93785.00;;;;10511958;27;45355;-58
2022/09/07 12:57:26;;;;;;;1.48;0.70;;;19.20;66.50;21.40;93770.00;;;;10511640;27;45208;-58
2022/09/07 13:03:35;;;;;;;1.08;0.57;;;19.20;66.40;21.30;93748.00;;;;10511905;27;45206;-57
2022/09/07 13:09:19;;;;;;;1.85;0.80;;;19.20;66.60;21.40;93741.00;;;;10479540;27;45152;-58
2022/09/07 13:14:41;;;;;;;1.48;0.68;;;19.20;66.10;21.40;93735.00;;;;10541028;27;45269;-58
2022/09/07 13:20:29;;;;;;;1.10;0.68;;;19.20;66.30;21.30;93732.00;;;;10525302;27;46089;-57
2022/09/07 13:25:57;;;;;;;2.85;0.90;;;19.20;67.00;21.40;93724.00;;;;10511102;27;45209;-59
2022/09/07 13:31:48;;;;;;;2.13;0.90;;;19.20;66.30;21.40;93720.00;;;;10553250;27;45921;-58
2022/09/07 13:37:17;;;;;;;1.00;0.60;;;19.20;65.60;21.40;93713.00;;;;10535859;27;45274;-56
2022/09/07 13:42:38;;;;;;;3.33;0.80;;;19.20;65.80;21.40;93708.00;;;;10536850;27;45667;-56
2022/09/07 13:48:10;;;;;;;2.50;0.70;;;19.20;66.30;21.30;93716.00;;;;10531975;27;45146;-58
2022/09/07 13:53:42;;;;;;;2.35;0.80;;;19.20;65.70;21.30;93712.00;;;;10514217;27;45231;-57
2022/09/07 13:59:17;;;;;;;3.17;0.60;;;19.20;66.40;21.30;93699.00;;;;10528148;27;45209;-57
2022/09/07 14:04:44;;;;;;;1.30;0.60;;;19.20;66.40;21.40;93692.00;;;;10542684;27;45215;-57
2022/09/07 14:10:13;;;;;;;2.20;0.82;;;19.20;65.70;21.40;93691.00;;;;10534244;27;45268;-58
2022/09/07 14:15:39;;;;;;;2.50;0.85;;;19.20;66.30;21.40;93671.00;;;;10517110;27;45268;-57
2022/09/07 14:21:01;;;;;;;1.27;0.70;;;19.20;66.20;21.40;93675.00;;;;10517829;27;45175;-56
2022/09/07 14:26:23;;;;;;;1.52;0.95;;;19.20;66.00;21.40;93670.00;;;;10521520;27;45735;-59
2022/09/07 14:31:43;;;;;;;1.65;0.80;;;19.20;65.30;21.40;93670.00;;;;10559334;27;45778;-56
2022/09/07 14:37:10;;;;;;;1.10;0.70;;;19.30;65.90;21.40;93674.00;;;;10522969;27;45249;-56
2022/09/07 14:42:31;;;;;;;1.88;0.80;;;19.20;65.40;21.40;93645.00;;;;10536811;27;45277;-57
2022/09/07 14:47:54;;;;;;;2.95;0.82;;;19.20;65.70;21.40;93650.00;;;;10515993;27;45696;-58
2022/09/07 14:53:19;;;;;;;1.40;0.73;;;19.20;65.30;21.40;93660.00;;;;10516645;27;45340;-58
2022/09/07 14:58:40;;;;;;;2.33;0.80;;;19.20;65.60;21.30;93658.00;;;;10546186;27;45322;-58
2022/09/07 15:04:01;;;;;;;1.27;0.60;;;19.20;65.40;21.30;93644.00;;;;10558958;27;45268;-59
2022/09/07 15:09:29;;;;;;;1.80;0.90;;;19.20;65.50;21.30;93640.00;;;;10558493;27;45237;-58
2022/09/07 15:14:50;;;;;;;2.03;0.75;;;19.20;65.70;21.30;93617.00;;;;10557095;27;45216;-57
2022/09/07 15:20:35;;;;;;;2.40;0.73;;;19.20;65.60;21.40;93619.00;;;;10529392;27;45284;-58
2022/09/07 15:25:57;;;;;;;3.92;0.90;;;19.30;65.40;21.40;93608.00;;;;10515787;27;45196;-59
2022/09/07 15:31:19;;;;;;;1.33;0.70;;;19.30;65.30;21.50;93599.00;;;;10551923;27;45383;-59
2022/09/07 15:36:43;;;;;;;2.42;0.80;;;19.30;65.10;21.50;93616.00;;;;10525598;27;46169;-57
2022/09/07 15:42:07;;;;;;;1.83;0.80;;;19.40;65.30;21.50;93626.00;;;;10514134;27;45225;-58
2022/09/07 15:47:28;;;;;;;2.13;0.95;;;19.40;65.60;21.50;93617.00;;;;10528012;27;45427;-57
2022/09/07 15:52:48;;;;;;;2.72;0.60;;;19.40;66.80;21.50;93614.00;;;;10555530;27;45203;-59
2022/09/07 15:58:12;;;;;;;1.27;0.70;;;19.40;67.00;21.60;93623.00;;;;10543218;27;45241;-56
2022/09/07 16:03:32;;;;;;;1.65;0.70;;;19.40;67.60;21.60;93616.00;;;;10509833;28;45209;-57
2022/09/07 16:08:54;;;;;;;2.45;0.80;;;19.40;68.00;21.60;93620.00;;;;10513020;28;45210;-57
2022/09/07 16:14:18;;;;;;;1.90;0.47;;;19.40;67.10;21.60;93614.00;;;;10514475;27;45138;-58
2022/09/07 16:19:39;;;;;;;1.35;0.80;;;19.50;66.80;21.60;93612.00;;;;10541498;27;45235;-57
2022/09/07 16:25:00;;;;;;;1.33;0.68;;;19.50;66.80;21.60;93623.00;;;;10517135;27;45172;-58
2022/09/07 16:30:21;;;;;;;0.70;0.55;;;19.50;66.10;21.60;93631.00;;;;10550426;27;45276;-58
2022/09/07 16:35:42;;;;;;;1.33;0.70;;;19.50;66.10;21.60;93630.00;;;;10521984;27;45467;-58
2022/09/07 16:41:03;;;;;;;1.13;0.85;;;19.50;66.10;21.60;93643.00;;;;10509461;27;45884;-55
2022/09/07 16:46:29;;;;;;;2.20;0.70;;;19.50;66.30;21.60;93623.00;;;;10510343;27;45357;-56
2022/09/07 16:51:51;;;;;;;1.20;0.70;;;19.50;66.10;21.60;93640.00;;;;10511917;27;45472;-56
2022/09/07 16:57:13;;;;;;;3.22;0.80;;;19.50;66.00;21.60;93625.00;;;;10527456;27;45684;-56
2022/09/07 17:02:35;;;;;;;0.50;0.50;;;19.50;65.80;21.60;93613.00;;;;10524472;27;45786;-56
2022/09/07 17:07:57;;;;;;;1.13;0.50;;;19.50;65.70;21.60;93584.00;;;;10511107;27;45160;-55
2022/09/07 17:13:17;;;;;;;0.82;0.63;;;19.50;65.40;21.60;93575.00;;;;10521979;27;45779;-57
2022/09/07 17:18:40;;;;;;;1.85;0.63;;;19.50;65.10;21.60;93574.00;;;;10524282;27;45797;-56
2022/09/07 17:24:02;;;;;;;2.08;0.73;;;19.50;65.30;21.60;93560.00;;;;10550132;27;45885;-55
2022/09/07 17:29:23;;;;;;;1.40;0.70;;;19.50;65.20;21.60;93581.00;;;;10552128;27;45180;-57
2022/09/07 17:34:45;;;;;;;0.75;0.75;;;19.50;65.20;21.60;93601.00;;;;10536902;27;45162;-56
2022/09/07 17:40:08;;;;;;;2.00;0.98;;;19.50;64.80;21.60;93630.00;;;;10510476;27;45339;-56
2022/09/07 17:45:29;;;;;;;1.60;0.70;;;19.40;64.90;21.50;93671.00;;;;10539798;27;45209;-59
2022/09/07 17:51:00;;;;;;;1.42;0.75;;;19.40;65.70;21.50;93641.00;;;;10553098;27;45496;-58
2022/09/07 17:56:21;;;;;;;1.55;0.60;;;19.30;65.30;21.50;93643.00;;;;10546091;27;45567;-56
2022/09/07 18:01:41;;;;;;;3.60;0.95;;;19.40;65.20;21.50;93634.00;;;;10518292;27;45250;-55
2022/09/07 18:07:03;;;;;;;3.20;0.70;;;19.40;65.20;21.50;93617.00;;;;10531227;27;45517;-57
2022/09/07 18:12:24;;;;;;;1.23;0.70;;;19.40;65.10;21.50;93542.00;;;;10533807;27;45584;-56
2022/09/07 18:17:45;;;;;;;1.67;0.70;;;19.40;65.10;21.50;93579.00;;;;10551788;27;45265;-57
2022/09/07 18:23:07;;;;;;;0.93;0.70;;;19.40;65.10;21.50;93568.00;;;;10552268;27;45464;-56
2022/09/07 18:28:28;;;;;;;1.88;0.90;;;19.40;65.10;21.60;93562.00;;;;10550860;27;45807;-56
2022/09/07 18:33:49;;;;;;;0.68;0.68;;;19.40;65.00;21.60;93560.00;;;;10527577;27;45545;-56
2022/09/07 18:39:12;;;;;;;1.98;0.57;;;19.40;65.10;21.60;93562.00;;;;10509080;28;45412;-56
2022/09/07 18:44:33;;;;;;;3.75;0.80;;;19.40;65.00;21.60;93581.00;;;;10529340;27;45216;-58
2022/09/07 18:49:53;;;;;;;1.00;0.50;;;19.50;65.20;21.60;93570.00;;;;10523124;27;45511;-58
2022/09/07 18:55:16;;;;;;;0.73;0.50;;;19.50;65.20;21.60;93585.00;;;;10516369;28;45241;-56
2022/09/07 19:00:36;;;;;;;1.75;0.60;;;19.50;65.20;21.60;93597.00;;;;10538455;27;45416;-54
2022/09/07 19:05:58;;;;;;;1.90;0.65;;;19.50;65.00;21.60;93578.00;;;;10516054;28;45222;-56
2022/09/07 19:11:23;;;;;;;3.97;0.60;;;19.50;65.30;21.70;93610.00;;;;10515512;27;45881;-56
2022/09/07 19:16:44;;;;;;;1.38;0.60;;;19.50;65.20;21.60;93595.00;;;;10515503;27;45225;-56
2022/09/07 19:22:05;;;;;;;1.70;0.80;;;19.50;65.10;21.60;93611.00;;;;10515310;27;45336;-56
2022/09/07 19:27:28;;;;;;;0.85;0.55;;;19.50;65.00;21.60;93619.00;;;;10528177;27;45840;-55
2022/09/07 19:32:48;;;;;;;0.57;0.50;;;19.50;65.10;21.60;93632.00;;;;10515509;27;45228;-56
2022/09/07 19:38:09;;;;;;;1.30;0.57;;;19.50;65.20;21.70;93640.00;;;;10520185;27;45293;-56
2022/09/07 19:43:33;;;;;;;0.50;0.40;;;19.50;65.10;21.70;93648.00;;;;10516992;27;45829;-55
2022/09/07 19:48:56;;;;;;;1.27;0.60;;;19.50;65.20;21.70;93656.00;;;;10514199;28;45132;-55
2022/09/07 19:54:17;;;;;;;2.10;0.75;;;19.50;65.10;21.70;93669.00;;;;10515174;27;45217;-57
2022/09/07 19:59:39;;;;;;;1.38;0.60;;;19.60;65.30;21.70;93690.00;;;;10532346;27;45702;-58
2022/09/07 20:04:59;;;;;;;1.00;0.60;;;19.60;65.30;21.70;93674.00;;;;10528445;27;45995;-57
2022/09/07 20:10:20;;;;;;;0.82;0.65;;;19.60;65.40;21.70;93668.00;;;;10552270;27;45220;-59
2022/09/07 20:15:42;;;;;;;1.77;0.60;;;19.60;65.20;21.70;93631.00;;;;10556233;27;45154;-56
2022/09/07 20:21:05;;;;;;;3.08;0.82;;;19.60;65.10;21.60;93593.00;;;;10556781;27;45222;-58
2022/09/07 20:26:25;;;;;;;1.20;0.90;;;19.50;65.20;21.60;93599.00;;;;10555905;27;45894;-57
2022/09/07 20:31:47;;;;;;;1.60;0.75;;;19.50;65.10;21.60;93584.00;;;;10556306;27;45961;-58
2022/09/07 20:37:08;;;;;;;1.08;0.70;;;19.50;65.00;21.60;93593.00;;;;10519210;27;45459;-56
2022/09/07 20:42:28;;;;;;;1.63;0.65;;;19.50;65.00;21.50;93577.00;;;;10544214;27;45237;-58
2022/09/07 20:47:50;;;;;;;1.65;0.65;;;19.50;64.90;21.60;93592.00;;;;10555201;27;45319;-57
2022/09/07 20:53:11;;;;;;;0.70;0.50;;;19.40;64.60;21.60;93585.00;;;;10555419;27;45205;-55
2022/09/07 20:58:33;;;;;;;0.93;0.32;;;19.40;64.70;21.60;93669.00;;;;10538102;27;45853;-56
2022/09/07 21:03:57;;;;;;;3.13;0.50;;;19.40;64.60;21.50;93707.00;;;;10522372;27;45173;-57
2022/09/07 21:09:18;;;;;;;0.77;0.40;;;19.50;64.70;21.50;93657.00;;;;10512371;28;45815;-57
2022/09/07 21:14:39;;;;;;;1.77;0.50;;;19.40;64.50;21.50;93613.00;;;;10510484;27;45369;-58
2022/09/07 21:20:01;;;;;;;3.00;0.50;;;19.40;64.50;21.50;93627.00;;;;10511686;27;45150;-57
2022/09/07 21:25:22;;;;;;;1.10;0.40;;;19.30;64.60;21.50;93681.00;;;;10511389;27;45695;-58
2022/09/07 21:30:42;;;;;;;0.73;0.35;;;19.30;64.70;21.50;93711.00;;;;10553070;27;45354;-57
2022/09/07 21:36:05;;;;;;;0.93;0.50;;;19.30;64.50;21.50;93736.00;;;;10526221;27;45204;-56
2022/09/07 21:41:26;;;;;;;0.60;0.45;;;19.30;64.50;21.50;93756.00;;;;10511146;27;45130;-57
2022/09/07 21:46:47;;;;;;;1.45;0.50;;;19.30;64.40;21.50;93753.00;;;;10510816;27;45254;-56
2022/09/07 21:52:08;;;;;;;2.42;0.55;;;19.30;64.50;21.40;93709.00;;;;10511340;27;45156;-58
2022/09/07 21:57:29;;;;;;;1.92;0.40;;;19.30;64.80;21.40;93656.00;;;;10511319;27;45366;-57
2022/09/07 22:02:50;;;;;;;1.35;0.20;;;19.30;65.50;21.40;93631.00;;;;10528133;27;45321;-55
2022/09/07 22:08:13;;;;;;;0.50;0.28;;;19.30;64.70;21.40;93580.00;;;;10510269;27;45147;-58
2022/09/07 22:13:34;;;;;;;0.98;0.47;;;19.30;64.80;21.40;93515.00;;;;10509314;27;45146;-58
2022/09/07 22:18:55;;;;;;;1.02;0.30;;;19.30;64.70;21.40;93516.00;;;;10509904;27;45318;-58
2022/09/07 22:24:17;;;;;;;1.00;0.32;;;19.20;64.50;21.40;93529.00;;;;10511549;27;45244;-58
2022/09/07 22:29:37;;;;;;;1.15;0.50;;;19.20;64.40;21.40;93509.00;;;;10549000;27;45787;-58
2022/09/07 22:34:58;;;;;;;1.05;0.55;;;19.20;64.40;21.40;93499.00;;;;10541457;27;45138;-58
2022/09/07 22:40:19;;;;;;;1.02;0.38;;;19.20;64.40;21.40;93502.00;;;;10517145;27;45680;-58
2022/09/07 22:45:40;;;;;;;1.10;0.30;;;19.20;64.40;21.40;93507.00;;;;10516294;27;45195;-56
2022/09/07 22:51:02;;;;;;;1.23;0.40;;;19.20;64.40;21.40;93515.00;;;;10516577;27;45802;-58
2022/09/07 22:56:26;;;;;;;0.68;0.22;;;19.20;64.40;21.40;93526.00;;;;10516316;27;45873;-57
2022/09/07 23:01:48;;;;;;;0.47;0.30;;;19.20;64.30;21.40;93544.00;;;;10537572;27;45258;-57
2022/09/07 23:07:08;;;;;;;0.52;0.30;;;19.20;64.30;21.30;93542.00;;;;10516045;27;45460;-58
2022/09/07 23:12:30;;;;;;;0.38;0.20;;;19.20;64.30;21.30;93568.00;;;;10515019;27;45096;-58
2022/09/07 23:17:51;;;;;;;0.60;0.40;;;19.20;64.30;21.30;93598.00;;;;10516102;27;45421;-58
2022/09/07 23:23:13;;;;;;;0.57;0.30;;;19.20;64.30;21.30;93604.00;;;;10515939;27;45186;-58
2022/09/07 23:28:35;;;;;;;0.68;0.47;;;19.20;64.30;21.30;93606.00;;;;10538363;27;45213;-58
2022/09/07 23:33:56;;;;;;;0.43;0.20;;;19.20;64.20;21.30;93586.00;;;;10548370;27;45785;-58
2022/09/07 23:39:17;;;;;;;0.45;0.43;;;19.10;64.20;21.30;93549.00;;;;10514788;27;45170;-58
2022/09/07 23:44:39;;;;;;;0.43;0.30;;;19.10;64.20;21.30;93571.00;;;;10515335;27;45150;-58